Sayre, OK (73662)

9:54 PM CST on February 10, 2016 (GMT -0600)
Keahey farms | | Change Station
CLOSE
Current Station
Personal Weather Station
Location: Erick, OK
Elevation: 1982 ft
Nearby Weather Stations

Elev 1982 ft 35.25 °N, 99.79 °W | Updated 59 seconds ago

Clear
Clear
49.1 °F
Feels Like 49 °F
N
0.0
Wind Variable Wind from SSW
Gusts 0.0 mph

Today
High -- | Low -- °F
--% Chance of Precip.
Yesterday
High -- | Low -- °F
Precip. -- in
Pressure 29.99 in
Visibility 10.0 miles
Clouds Clear
Windchill 49 °F
Dew Point 20 °F
Humidity 32%
Rainfall 0.00 in
Snow Depth Not available.
7:30 AM 6:15 PM
Waxing Crescent, 9% visible
METAR KCSM 110253Z 23010KT 10SM CLR 11/M03 A2998 RMK AO2 SLP153 T01061028 58004
Pressure 29.99 in
Visibility 10.0 miles
Clouds Clear
Windchill 49 °F
Dew Point 20 °F
Humidity 32%
Rainfall 0.00 in
Snow Depth Not available.
7:30 AM 6:15 PM
Waxing Crescent, 9% visible
METAR KCSM 110253Z 23010KT 10SM CLR 11/M03 A2998 RMK AO2 SLP153 T01061028 58004

10-Day Weather Forecast

Almanac

Astronomy

Feb. 10, 2016 Rise Set
Actual Time
Civil Twilight
Nautical Twilight
Astronomical Twilight
Moon
Length of Visible Light
Length of Day
Tomorrow will be .
, % of the Moon is Illuminated

Today's Extremes

State Highs State Lows

Community

WunderPhotos

Upload Photos

1,892,000 photos uploaded!

WunderBlog® & News

Nearby

Air Quality

  Air Quality AQ Index Pollutant
Not available.

Snow Depth

Station Depth Elevation

Earthquake Activity

City Distance Mag. Time & Date
Minimum magnitude displayed is 2.5.

Coastal Water Temperatures

Place Temperature

Stations

Nearby Weather Stations

Station Location Temp. Windchill Dew Point Humidity Wind Precip. Elev Updated Type
                   

Watches & Warnings

There are currently no watches in effect.